SND1 LDDU-LGSR
Flight info
| Callsign | SND1 |
|---|---|
| Flight time | 1h 13m |
| Altitude | 37000 |
| Route | RIGVA DCT VAKSU DCT PETAK DCT PINDO UL607 NETIS UM601 PEXAN |
| Aircraft | A319/M-SDE3FGHIRWY/LB1 |
Departure
| Time | 2026-04-30 01:16 |
|---|---|
| Airport | Dubrovnik Ruđer Bošković Airport (LDDU) |
Arrival
| Time | 2026-04-30 02:30 |
|---|---|
| Airport | Santorini International Airport (LGSR) |
| Time | Latitude | Longitude | Altitude | Speed | Heading |
|---|---|---|---|---|---|
| 2026-04-30 00:50 | 42.56126 | 18.26201 | 513 ft | 0 kts | 210° |
| 2026-04-30 01:08 | 42.56130 | 18.26203 | 513 ft | 3 kts | 210° |
| 2026-04-30 01:09 | 42.56152 | 18.26223 | 513 ft | 4 kts | 220° |
| 2026-04-30 01:09 | 42.56169 | 18.26250 | 513 ft | 4 kts | 256° |
| 2026-04-30 01:09 | 42.56169 | 18.26271 | 513 ft | 1 kts | 298° |
| 2026-04-30 01:09 | 42.56168 | 18.26274 | 513 ft | 0 kts | 298° |
| 2026-04-30 01:10 | 42.56168 | 18.26275 | 513 ft | 0 kts | 298° |
| 2026-04-30 01:12 | 42.56169 | 18.26270 | 513 ft | 2 kts | 298° |
| 2026-04-30 01:12 | 42.56185 | 18.26232 | 513 ft | 7 kts | 298° |
| 2026-04-30 01:12 | 42.56217 | 18.26152 | 514 ft | 12 kts | 298° |
| 2026-04-30 01:12 | 42.56263 | 18.26037 | 515 ft | 15 kts | 298° |
| 2026-04-30 01:13 | 42.56313 | 18.25910 | 516 ft | 15 kts | 298° |
| 2026-04-30 01:13 | 42.56364 | 18.25780 | 518 ft | 16 kts | 298° |
| 2026-04-30 01:13 | 42.56417 | 18.25647 | 519 ft | 16 kts | 298° |
| 2026-04-30 01:13 | 42.56471 | 18.25510 | 520 ft | 17 kts | 298° |
| 2026-04-30 01:14 | 42.56526 | 18.25371 | 521 ft | 17 kts | 298° |
| 2026-04-30 01:14 | 42.56582 | 18.25228 | 523 ft | 17 kts | 298° |
| 2026-04-30 01:14 | 42.56640 | 18.25083 | 524 ft | 18 kts | 298° |
| 2026-04-30 01:14 | 42.56698 | 18.24936 | 526 ft | 18 kts | 298° |
| 2026-04-30 01:15 | 42.56754 | 18.24795 | 527 ft | 16 kts | 298° |
| 2026-04-30 01:15 | 42.56822 | 18.24682 | 528 ft | 16 kts | 336° |
| 2026-04-30 01:15 | 42.56920 | 18.24723 | 529 ft | 16 kts | 55° |
| 2026-04-30 01:15 | 42.56912 | 18.24871 | 528 ft | 18 kts | 119° |
| 2026-04-30 01:16 | 42.56769 | 18.25232 | 523 ft | 81 kts | 118° |
| 2026-04-30 01:16 | 42.56390 | 18.26192 | 515 ft | 147 kts | 118° |
| 2026-04-30 01:16 | 42.55844 | 18.27572 | 799 ft | 171 kts | 117° |
| 2026-04-30 01:16 | 42.55286 | 18.29018 | 1508 ft | 174 kts | 116° |
| 2026-04-30 01:17 | 42.54744 | 18.30479 | 2275 ft | 173 kts | 116° |
| 2026-04-30 01:17 | 42.54193 | 18.32012 | 2785 ft | 191 kts | 116° |
| 2026-04-30 01:17 | 42.53406 | 18.33561 | 3120 ft | 216 kts | 139° |
| 2026-04-30 01:17 | 42.51947 | 18.34415 | 3455 ft | 246 kts | 172° |
| 2026-04-30 01:18 | 42.50191 | 18.34078 | 4051 ft | 267 kts | 203° |
| 2026-04-30 01:18 | 42.48732 | 18.32558 | 5075 ft | 266 kts | 227° |
| 2026-04-30 01:18 | 42.47520 | 18.30696 | 6220 ft | 262 kts | 230° |
| 2026-04-30 01:18 | 42.46341 | 18.28792 | 7147 ft | 265 kts | 231° |
| 2026-04-30 01:19 | 42.45153 | 18.26859 | 8045 ft | 270 kts | 227° |
| 2026-04-30 01:19 | 42.43598 | 18.25456 | 8862 ft | 279 kts | 202° |
| 2026-04-30 01:19 | 42.41662 | 18.25023 | 9754 ft | 287 kts | 186° |
| 2026-04-30 01:19 | 42.39640 | 18.24873 | 10375 ft | 301 kts | 186° |
| 2026-04-30 01:20 | 42.37463 | 18.24710 | 10658 ft | 324 kts | 186° |
| 2026-04-30 01:20 | 42.35162 | 18.24538 | 11170 ft | 337 kts | 186° |
| 2026-04-30 01:20 | 42.32796 | 18.24366 | 11881 ft | 343 kts | 186° |
| 2026-04-30 01:20 | 42.30394 | 18.24245 | 12643 ft | 349 kts | 181° |
| 2026-04-30 01:21 | 42.27951 | 18.24726 | 13367 ft | 359 kts | 168° |
| 2026-04-30 01:21 | 42.25604 | 18.25973 | 14036 ft | 369 kts | 155° |
| 2026-04-30 01:21 | 42.23463 | 18.27965 | 14664 ft | 378 kts | 143° |
| 2026-04-30 01:21 | 42.21432 | 18.30257 | 15291 ft | 383 kts | 143° |
| 2026-04-30 01:22 | 42.19376 | 18.32577 | 15912 ft | 388 kts | 143° |
| 2026-04-30 01:22 | 42.17293 | 18.34926 | 16538 ft | 392 kts | 143° |
| 2026-04-30 01:22 | 42.15185 | 18.37295 | 17160 ft | 397 kts | 143° |
| 2026-04-30 01:22 | 42.13049 | 18.39687 | 17774 ft | 402 kts | 143° |
| 2026-04-30 01:23 | 42.10888 | 18.42104 | 18385 ft | 406 kts | 144° |
| 2026-04-30 01:23 | 42.08699 | 18.44548 | 18924 ft | 410 kts | 144° |
| 2026-04-30 01:23 | 42.06494 | 18.47008 | 19469 ft | 414 kts | 144° |
| 2026-04-30 01:23 | 42.04269 | 18.49513 | 20019 ft | 419 kts | 142° |
| 2026-04-30 01:24 | 42.02253 | 18.52391 | 20551 ft | 427 kts | 130° |
| 2026-04-30 01:24 | 42.00630 | 18.55711 | 21084 ft | 434 kts | 120° |
| 2026-04-30 01:24 | 41.99398 | 18.59429 | 21622 ft | 439 kts | 112° |
| 2026-04-30 01:24 | 41.98261 | 18.63258 | 22149 ft | 443 kts | 112° |
| 2026-04-30 01:25 | 41.97106 | 18.67116 | 22646 ft | 447 kts | 112° |
| 2026-04-30 01:25 | 41.95936 | 18.71003 | 23139 ft | 451 kts | 113° |
| 2026-04-30 01:25 | 41.94756 | 18.74918 | 23619 ft | 455 kts | 113° |
| 2026-04-30 01:25 | 41.93560 | 18.78879 | 24034 ft | 458 kts | 113° |
| 2026-04-30 01:26 | 41.92356 | 18.82848 | 24443 ft | 461 kts | 113° |
| 2026-04-30 01:26 | 41.91141 | 18.86845 | 24881 ft | 463 kts | 113° |
| 2026-04-30 01:26 | 41.89920 | 18.90860 | 25271 ft | 466 kts | 113° |
| 2026-04-30 01:26 | 41.88693 | 18.94893 | 25674 ft | 468 kts | 113° |
| 2026-04-30 01:27 | 41.87457 | 18.98951 | 26074 ft | 471 kts | 113° |
| 2026-04-30 01:27 | 41.86215 | 19.03031 | 26473 ft | 473 kts | 113° |
| 2026-04-30 01:27 | 41.84968 | 19.07122 | 26883 ft | 475 kts | 113° |
| 2026-04-30 01:27 | 41.83711 | 19.11233 | 27276 ft | 478 kts | 113° |
| 2026-04-30 01:28 | 41.82443 | 19.15368 | 27669 ft | 480 kts | 113° |
| 2026-04-30 01:28 | 41.81170 | 19.19512 | 28059 ft | 482 kts | 113° |
| 2026-04-30 01:28 | 41.79887 | 19.23686 | 28438 ft | 485 kts | 113° |
| 2026-04-30 01:28 | 41.78522 | 19.27824 | 28799 ft | 486 kts | 118° |
| 2026-04-30 01:29 | 41.76765 | 19.31691 | 29158 ft | 487 kts | 128° |
| 2026-04-30 01:29 | 41.74638 | 19.35139 | 29498 ft | 486 kts | 136° |
| 2026-04-30 01:29 | 41.72219 | 19.38309 | 29832 ft | 488 kts | 139° |
| 2026-04-30 01:29 | 41.69772 | 19.41476 | 30162 ft | 490 kts | 139° |
| 2026-04-30 01:30 | 41.67324 | 19.44652 | 30438 ft | 492 kts | 139° |
| 2026-04-30 01:30 | 41.64856 | 19.47858 | 30712 ft | 494 kts | 139° |
| 2026-04-30 01:30 | 41.62383 | 19.51069 | 30984 ft | 497 kts | 139° |
| 2026-04-30 01:30 | 41.59905 | 19.54288 | 31321 ft | 497 kts | 139° |
| 2026-04-30 01:31 | 41.57427 | 19.57503 | 31709 ft | 496 kts | 139° |
| 2026-04-30 01:31 | 41.54949 | 19.60712 | 32089 ft | 495 kts | 139° |
| 2026-04-30 01:31 | 41.52479 | 19.63905 | 32468 ft | 495 kts | 139° |
| 2026-04-30 01:31 | 41.50006 | 19.67099 | 32853 ft | 494 kts | 139° |
| 2026-04-30 01:32 | 41.47535 | 19.70291 | 33240 ft | 494 kts | 139° |
| 2026-04-30 01:32 | 41.45073 | 19.73469 | 33631 ft | 493 kts | 139° |
| 2026-04-30 01:32 | 41.42606 | 19.76647 | 34024 ft | 492 kts | 139° |
| 2026-04-30 01:32 | 41.40145 | 19.79809 | 34374 ft | 492 kts | 139° |
| 2026-04-30 01:33 | 41.37681 | 19.82969 | 34722 ft | 491 kts | 139° |
| 2026-04-30 01:33 | 41.35221 | 19.86114 | 35062 ft | 490 kts | 139° |
| 2026-04-30 01:33 | 41.32761 | 19.89253 | 35400 ft | 489 kts | 139° |
| 2026-04-30 01:33 | 41.30303 | 19.92386 | 35729 ft | 489 kts | 139° |
| 2026-04-30 01:34 | 41.27853 | 19.95511 | 36054 ft | 488 kts | 139° |
| 2026-04-30 01:34 | 41.25399 | 19.98645 | 36343 ft | 488 kts | 139° |
| 2026-04-30 01:34 | 41.22955 | 20.01767 | 36644 ft | 487 kts | 139° |
| 2026-04-30 01:34 | 41.20515 | 20.04877 | 36936 ft | 487 kts | 139° |
| 2026-04-30 01:35 | 41.18894 | 20.06941 | 37044 ft | 487 kts | 139° |
| 2026-04-30 01:35 | 41.15652 | 20.11058 | 37090 ft | 485 kts | 139° |
| 2026-04-30 01:35 | 41.10766 | 20.17231 | 37086 ft | 485 kts | 140° |
| 2026-04-30 01:36 | 41.06680 | 20.22408 | 37086 ft | 484 kts | 139° |
| 2026-04-30 01:36 | 41.01804 | 20.28588 | 37093 ft | 484 kts | 140° |
| 2026-04-30 01:37 | 40.96952 | 20.34708 | 37098 ft | 485 kts | 140° |
| 2026-04-30 01:37 | 40.92062 | 20.40847 | 37105 ft | 484 kts | 140° |
| 2026-04-30 01:38 | 40.87174 | 20.46983 | 37116 ft | 484 kts | 140° |
| 2026-04-30 01:38 | 40.82289 | 20.53106 | 37112 ft | 484 kts | 140° |
| 2026-04-30 01:39 | 40.77390 | 20.59217 | 37124 ft | 484 kts | 140° |
| 2026-04-30 01:39 | 40.72493 | 20.65311 | 37129 ft | 484 kts | 140° |
| 2026-04-30 01:40 | 40.67600 | 20.71402 | 37117 ft | 484 kts | 140° |
| 2026-04-30 01:40 | 40.62711 | 20.77498 | 37129 ft | 484 kts | 140° |
| 2026-04-30 01:41 | 40.57813 | 20.83575 | 37134 ft | 484 kts | 140° |
| 2026-04-30 01:41 | 40.52904 | 20.89636 | 37128 ft | 483 kts | 140° |
| 2026-04-30 01:42 | 40.47992 | 20.95682 | 37124 ft | 483 kts | 140° |
| 2026-04-30 01:42 | 40.43002 | 21.01599 | 37120 ft | 482 kts | 142° |
| 2026-04-30 01:43 | 40.37934 | 21.07358 | 37120 ft | 482 kts | 142° |
| 2026-04-30 01:43 | 40.32856 | 21.13118 | 37120 ft | 482 kts | 142° |
| 2026-04-30 01:44 | 40.27836 | 21.18876 | 37121 ft | 482 kts | 142° |
| 2026-04-30 01:44 | 40.22798 | 21.24677 | 37116 ft | 482 kts | 142° |
| 2026-04-30 01:45 | 40.17744 | 21.30460 | 37111 ft | 482 kts | 142° |
| 2026-04-30 01:45 | 40.12685 | 21.36228 | 37109 ft | 482 kts | 142° |
| 2026-04-30 01:46 | 40.07622 | 21.41993 | 37103 ft | 483 kts | 142° |
| 2026-04-30 01:46 | 40.02549 | 21.47755 | 37102 ft | 483 kts | 142° |
| 2026-04-30 01:47 | 39.97481 | 21.53506 | 37102 ft | 483 kts | 142° |
| 2026-04-30 01:47 | 39.92407 | 21.59249 | 37100 ft | 483 kts | 142° |
| 2026-04-30 01:48 | 39.87328 | 21.64994 | 37100 ft | 483 kts | 142° |
| 2026-04-30 01:48 | 39.82283 | 21.70695 | 37094 ft | 483 kts | 142° |
| 2026-04-30 01:49 | 39.77189 | 21.76418 | 37095 ft | 484 kts | 142° |
| 2026-04-30 01:49 | 39.72088 | 21.82124 | 37091 ft | 484 kts | 142° |
| 2026-04-30 01:50 | 39.66991 | 21.87825 | 37091 ft | 483 kts | 142° |
| 2026-04-30 01:50 | 39.61902 | 21.93531 | 37085 ft | 483 kts | 142° |
| 2026-04-30 01:51 | 39.56804 | 21.99229 | 37082 ft | 484 kts | 142° |
| 2026-04-30 01:51 | 39.51697 | 22.04896 | 37080 ft | 484 kts | 142° |
| 2026-04-30 01:52 | 39.46586 | 22.10569 | 37083 ft | 484 kts | 142° |
| 2026-04-30 01:52 | 39.41479 | 22.16235 | 37082 ft | 484 kts | 142° |
| 2026-04-30 01:53 | 39.36371 | 22.21900 | 37085 ft | 484 kts | 142° |
| 2026-04-30 01:53 | 39.31262 | 22.27539 | 37086 ft | 483 kts | 142° |
| 2026-04-30 01:54 | 39.26142 | 22.33186 | 37087 ft | 483 kts | 142° |
| 2026-04-30 01:54 | 39.21016 | 22.38813 | 37088 ft | 483 kts | 142° |
| 2026-04-30 01:55 | 39.15900 | 22.44427 | 37085 ft | 483 kts | 142° |
| 2026-04-30 01:55 | 39.10806 | 22.50011 | 37086 ft | 483 kts | 142° |
| 2026-04-30 01:56 | 39.05688 | 22.55610 | 37085 ft | 483 kts | 142° |
| 2026-04-30 01:56 | 39.00569 | 22.61199 | 37087 ft | 483 kts | 142° |
| 2026-04-30 01:57 | 38.95442 | 22.66784 | 37087 ft | 482 kts | 142° |
| 2026-04-30 01:57 | 38.90318 | 22.72360 | 37084 ft | 482 kts | 142° |
| 2026-04-30 01:58 | 38.85193 | 22.77923 | 37078 ft | 482 kts | 142° |
| 2026-04-30 01:58 | 38.80062 | 22.83468 | 37080 ft | 482 kts | 142° |
| 2026-04-30 01:59 | 38.72365 | 22.91783 | 37081 ft | 482 kts | 142° |
| 2026-04-30 02:00 | 38.67232 | 22.97316 | 37080 ft | 482 kts | 142° |
| 2026-04-30 02:00 | 38.62095 | 23.02835 | 37077 ft | 482 kts | 142° |
| 2026-04-30 02:01 | 38.56951 | 23.08355 | 37068 ft | 483 kts | 142° |
| 2026-04-30 02:01 | 38.51808 | 23.13866 | 37071 ft | 483 kts | 142° |
| 2026-04-30 02:02 | 38.46662 | 23.19376 | 37079 ft | 483 kts | 142° |
| 2026-04-30 02:02 | 38.41507 | 23.24875 | 37077 ft | 483 kts | 142° |
| 2026-04-30 02:03 | 38.36347 | 23.30371 | 37078 ft | 483 kts | 142° |
| 2026-04-30 02:03 | 38.31184 | 23.35866 | 37076 ft | 483 kts | 142° |
| 2026-04-30 02:04 | 38.26021 | 23.41347 | 37068 ft | 483 kts | 143° |
| 2026-04-30 02:04 | 38.20844 | 23.46823 | 37064 ft | 483 kts | 143° |
| 2026-04-30 02:05 | 38.15666 | 23.52288 | 37062 ft | 484 kts | 143° |
| 2026-04-30 02:05 | 38.10486 | 23.57755 | 37057 ft | 484 kts | 142° |
| 2026-04-30 02:06 | 38.05315 | 23.63216 | 37063 ft | 484 kts | 142° |
| 2026-04-30 02:06 | 38.00132 | 23.68660 | 37065 ft | 484 kts | 143° |
| 2026-04-30 02:07 | 37.94968 | 23.74061 | 37089 ft | 484 kts | 143° |
| 2026-04-30 02:07 | 37.89789 | 23.79512 | 37084 ft | 484 kts | 140° |
| 2026-04-30 02:08 | 37.85262 | 23.85852 | 37071 ft | 486 kts | 131° |
| 2026-04-30 02:08 | 37.83084 | 23.89127 | 36706 ft | 486 kts | 131° |
| 2026-04-30 02:08 | 37.80900 | 23.92402 | 36066 ft | 485 kts | 131° |
| 2026-04-30 02:08 | 37.78727 | 23.95651 | 35428 ft | 484 kts | 131° |
| 2026-04-30 02:09 | 37.76558 | 23.98889 | 34784 ft | 483 kts | 131° |
| 2026-04-30 02:09 | 37.74386 | 24.02131 | 34154 ft | 482 kts | 131° |
| 2026-04-30 02:09 | 37.72229 | 24.05350 | 33409 ft | 481 kts | 130° |
| 2026-04-30 02:09 | 37.70066 | 24.08576 | 32658 ft | 479 kts | 130° |
| 2026-04-30 02:10 | 37.67906 | 24.11797 | 31543 ft | 485 kts | 131° |
| 2026-04-30 02:10 | 37.65725 | 24.15045 | 30875 ft | 479 kts | 131° |
| 2026-04-30 02:10 | 37.63583 | 24.18226 | 30252 ft | 472 kts | 131° |
| 2026-04-30 02:10 | 37.61467 | 24.21360 | 29522 ft | 466 kts | 131° |
| 2026-04-30 02:11 | 37.59408 | 24.24400 | 28909 ft | 458 kts | 131° |
| 2026-04-30 02:11 | 37.57322 | 24.27451 | 28286 ft | 450 kts | 134° |
| 2026-04-30 02:11 | 37.55097 | 24.30099 | 27741 ft | 442 kts | 142° |
| 2026-04-30 02:11 | 37.52605 | 24.32321 | 27175 ft | 436 kts | 150° |
| 2026-04-30 02:12 | 37.50046 | 24.34329 | 26613 ft | 431 kts | 150° |
| 2026-04-30 02:12 | 37.47515 | 24.36318 | 26071 ft | 427 kts | 150° |
| 2026-04-30 02:12 | 37.44992 | 24.38299 | 25528 ft | 424 kts | 150° |
| 2026-04-30 02:12 | 37.42498 | 24.40257 | 25006 ft | 421 kts | 150° |
| 2026-04-30 02:13 | 37.40022 | 24.42202 | 24486 ft | 418 kts | 150° |
| 2026-04-30 02:13 | 37.37562 | 24.44133 | 23989 ft | 416 kts | 150° |
| 2026-04-30 02:13 | 37.35116 | 24.46050 | 23465 ft | 413 kts | 150° |
| 2026-04-30 02:13 | 37.32683 | 24.47954 | 22970 ft | 410 kts | 150° |
| 2026-04-30 02:14 | 37.30270 | 24.49840 | 22502 ft | 406 kts | 150° |
| 2026-04-30 02:14 | 37.27883 | 24.51708 | 22058 ft | 402 kts | 149° |
| 2026-04-30 02:14 | 37.25547 | 24.53535 | 21618 ft | 398 kts | 149° |
| 2026-04-30 02:14 | 37.23201 | 24.55366 | 21179 ft | 395 kts | 149° |
| 2026-04-30 02:15 | 37.20873 | 24.57178 | 20734 ft | 391 kts | 149° |
| 2026-04-30 02:15 | 37.18567 | 24.58969 | 20288 ft | 388 kts | 149° |
| 2026-04-30 02:15 | 37.16279 | 24.60747 | 19839 ft | 385 kts | 149° |
| 2026-04-30 02:15 | 37.14012 | 24.62509 | 19384 ft | 382 kts | 149° |
| 2026-04-30 02:16 | 37.11758 | 24.64268 | 18933 ft | 380 kts | 149° |
| 2026-04-30 02:16 | 37.10279 | 24.65424 | 18632 ft | 379 kts | 149° |
| 2026-04-30 02:16 | 37.07292 | 24.67751 | 17962 ft | 377 kts | 149° |
| 2026-04-30 02:16 | 37.05068 | 24.69472 | 17500 ft | 373 kts | 149° |
| 2026-04-30 02:17 | 37.03607 | 24.70599 | 17194 ft | 371 kts | 149° |
| 2026-04-30 02:17 | 37.01416 | 24.72295 | 16737 ft | 368 kts | 149° |
| 2026-04-30 02:17 | 36.99245 | 24.73975 | 16285 ft | 366 kts | 149° |
| 2026-04-30 02:17 | 36.97079 | 24.75648 | 15821 ft | 364 kts | 149° |
| 2026-04-30 02:18 | 36.94934 | 24.77308 | 15379 ft | 362 kts | 149° |
| 2026-04-30 02:18 | 36.92798 | 24.78958 | 14928 ft | 360 kts | 149° |
| 2026-04-30 02:18 | 36.90677 | 24.80599 | 14474 ft | 358 kts | 149° |
| 2026-04-30 02:18 | 36.88565 | 24.82237 | 14020 ft | 357 kts | 149° |
| 2026-04-30 02:19 | 36.86462 | 24.83870 | 13526 ft | 355 kts | 149° |
| 2026-04-30 02:19 | 36.84368 | 24.85490 | 13055 ft | 352 kts | 149° |
| 2026-04-30 02:19 | 36.82320 | 24.87071 | 12595 ft | 349 kts | 149° |
| 2026-04-30 02:19 | 36.80261 | 24.88661 | 12130 ft | 346 kts | 149° |
| 2026-04-30 02:20 | 36.78219 | 24.90238 | 11661 ft | 343 kts | 149° |
| 2026-04-30 02:20 | 36.76197 | 24.91799 | 11189 ft | 341 kts | 149° |
| 2026-04-30 02:20 | 36.74186 | 24.93353 | 10720 ft | 338 kts | 149° |
| 2026-04-30 02:20 | 36.72326 | 24.95101 | 10452 ft | 330 kts | 136° |
| 2026-04-30 02:21 | 36.70931 | 24.97303 | 10335 ft | 318 kts | 121° |
| 2026-04-30 02:21 | 36.70059 | 24.99766 | 10207 ft | 306 kts | 106° |
| 2026-04-30 02:21 | 36.69670 | 25.02332 | 9978 ft | 299 kts | 97° |
| 2026-04-30 02:21 | 36.69407 | 25.04881 | 9725 ft | 297 kts | 97° |
| 2026-04-30 02:22 | 36.69140 | 25.07436 | 9325 ft | 296 kts | 97° |
| 2026-04-30 02:22 | 36.68873 | 25.09975 | 8817 ft | 295 kts | 97° |
| 2026-04-30 02:22 | 36.68608 | 25.12489 | 8415 ft | 291 kts | 97° |
| 2026-04-30 02:22 | 36.68344 | 25.14984 | 7955 ft | 290 kts | 97° |
| 2026-04-30 02:23 | 36.68081 | 25.17464 | 7508 ft | 288 kts | 98° |
| 2026-04-30 02:23 | 36.67619 | 25.19880 | 7049 ft | 286 kts | 105° |
| 2026-04-30 02:23 | 36.67100 | 25.22264 | 6609 ft | 284 kts | 105° |
| 2026-04-30 02:23 | 36.66590 | 25.24629 | 6135 ft | 282 kts | 104° |
| 2026-04-30 02:24 | 36.66081 | 25.26983 | 5649 ft | 280 kts | 104° |
| 2026-04-30 02:24 | 36.65576 | 25.29323 | 5234 ft | 277 kts | 104° |
| 2026-04-30 02:24 | 36.65089 | 25.31598 | 5054 ft | 266 kts | 104° |
| 2026-04-30 02:24 | 36.64621 | 25.33770 | 4928 ft | 253 kts | 105° |
| 2026-04-30 02:25 | 36.63894 | 25.35694 | 4816 ft | 241 kts | 127° |
| 2026-04-30 02:25 | 36.62687 | 25.37082 | 4569 ft | 236 kts | 149° |
| 2026-04-30 02:25 | 36.61195 | 25.37886 | 4250 ft | 234 kts | 160° |
| 2026-04-30 02:25 | 36.59667 | 25.38599 | 3932 ft | 234 kts | 160° |
| 2026-04-30 02:26 | 36.58151 | 25.39311 | 3619 ft | 232 kts | 160° |
| 2026-04-30 02:26 | 36.56649 | 25.40019 | 3337 ft | 228 kts | 160° |
| 2026-04-30 02:26 | 36.55180 | 25.40713 | 3031 ft | 224 kts | 160° |
| 2026-04-30 02:26 | 36.53733 | 25.41399 | 2741 ft | 221 kts | 160° |
| 2026-04-30 02:27 | 36.52325 | 25.42066 | 2502 ft | 210 kts | 161° |
| 2026-04-30 02:27 | 36.50989 | 25.42698 | 2192 ft | 201 kts | 161° |
| 2026-04-30 02:27 | 36.49735 | 25.43293 | 1940 ft | 189 kts | 161° |
| 2026-04-30 02:27 | 36.48580 | 25.43842 | 1706 ft | 168 kts | 161° |
| 2026-04-30 02:28 | 36.47540 | 25.44335 | 1488 ft | 153 kts | 161° |
| 2026-04-30 02:28 | 36.46567 | 25.44795 | 1299 ft | 147 kts | 161° |
| 2026-04-30 02:28 | 36.45624 | 25.45239 | 1111 ft | 143 kts | 161° |
| 2026-04-30 02:28 | 36.44700 | 25.45670 | 935 ft | 141 kts | 161° |
| 2026-04-30 02:29 | 36.43786 | 25.46090 | 738 ft | 139 kts | 161° |
| 2026-04-30 02:29 | 36.42889 | 25.46516 | 562 ft | 137 kts | 160° |
| 2026-04-30 02:29 | 36.41995 | 25.46933 | 409 ft | 137 kts | 160° |
| 2026-04-30 02:29 | 36.41105 | 25.47359 | 203 ft | 138 kts | 161° |
| 2026-04-30 02:30 | 36.40249 | 25.47759 | 113 ft | 119 kts | 159° |
| 2026-04-30 02:30 | 36.39600 | 25.48063 | 88 ft | 82 kts | 159° |
| 2026-04-30 02:30 | 36.39204 | 25.48250 | 66 ft | 33 kts | 159° |
| 2026-04-30 02:30 | 36.39054 | 25.48315 | 65 ft | 17 kts | 181° |
| 2026-04-30 02:31 | 36.39006 | 25.48192 | 64 ft | 16 kts | 286° |
| 2026-04-30 02:31 | 36.39096 | 25.48135 | 66 ft | 14 kts | 340° |
| 2026-04-30 02:31 | 36.39181 | 25.48095 | 67 ft | 12 kts | 339° |
| 2026-04-30 02:31 | 36.39256 | 25.48060 | 70 ft | 11 kts | 340° |
| 2026-04-30 02:32 | 36.39323 | 25.48029 | 71 ft | 11 kts | 339° |
| 2026-04-30 02:32 | 36.39402 | 25.47992 | 81 ft | 13 kts | 339° |
| 2026-04-30 02:32 | 36.39496 | 25.47948 | 84 ft | 16 kts | 339° |
| 2026-04-30 02:32 | 36.39605 | 25.47896 | 91 ft | 18 kts | 339° |
| 2026-04-30 02:33 | 36.39730 | 25.47839 | 94 ft | 20 kts | 339° |
| 2026-04-30 02:33 | 36.39867 | 25.47773 | 98 ft | 22 kts | 339° |
| 2026-04-30 02:33 | 36.40019 | 25.47702 | 103 ft | 23 kts | 339° |
| 2026-04-30 02:33 | 36.40134 | 25.47631 | 108 ft | 14 kts | 294° |
| 2026-04-30 02:34 | 36.40154 | 25.47529 | 109 ft | 13 kts | 336° |
| 2026-04-30 02:34 | 36.40231 | 25.47495 | 112 ft | 11 kts | 341° |
| 2026-04-30 02:34 | 36.40299 | 25.47466 | 115 ft | 9 kts | 341° |
| 2026-04-30 02:34 | 36.40353 | 25.47441 | 114 ft | 6 kts | 325° |
| 2026-04-30 02:35 | 36.40358 | 25.47398 | 118 ft | 4 kts | 253° |
| 2026-04-30 02:35 | 36.40351 | 25.47377 | 116 ft | 3 kts | 247° |
| 2026-04-30 02:35 | 36.40349 | 25.47374 | 116 ft | 0 kts | 246° |